Time;durP1;ratioP1;P1;durP2;ratioP2;P2;SDS_P1;SDS_P2;PMS_P1;PMS_P2;Temp;Humidity;BMP_temperature;BMP_pressure;BME280_temperature;BME280_humidity;BME280_pressure;Samples;Min_cycle;Max_cycle;Signal;HPM_P1;HPM_P2
2023/06/14 00:00:24;;;;;;;4.22;2.25;;;;;;;15.10;44.78;99651.50;10535331;28;20104;-58
2023/06/14 00:05:26;;;;;;;3.38;2.03;;;;;;;15.07;44.92;99649.97;10552932;27;20051;-58
2023/06/14 00:10:30;;;;;;;3.70;2.22;;;;;;;14.96;45.05;99655.25;10551560;27;20134;-59
2023/06/14 00:15:33;;;;;;;3.88;2.30;;;;;;;14.97;45.42;99656.09;10554427;28;20419;-59
2023/06/14 00:20:34;;;;;;;3.75;2.10;;;;;;;14.83;45.64;99656.41;10552321;28;20125;-58
2023/06/14 00:25:36;;;;;;;4.05;2.10;;;;;;;14.89;45.50;99659.38;10552785;28;20553;-59
2023/06/14 00:30:38;;;;;;;3.50;1.90;;;;;;;14.70;45.72;99659.19;10551231;28;20044;-59
2023/06/14 00:35:40;;;;;;;3.58;2.15;;;;;;;14.50;46.24;99652.91;10541622;27;20104;-59
2023/06/14 00:40:41;;;;;;;3.40;2.20;;;;;;;14.43;46.42;99650.88;10552987;28;20656;-59
2023/06/14 00:45:49;;;;;;;4.57;2.00;;;;;;;14.50;46.62;99655.53;10522504;28;20044;-59
2023/06/14 00:50:52;;;;;;;4.95;2.33;;;;;;;14.47;46.27;99661.00;10525977;28;20493;-60
2023/06/14 00:55:54;;;;;;;4.00;2.40;;;;;;;14.41;46.58;99661.47;10547916;27;20043;-59
2023/06/14 01:00:57;;;;;;;4.45;2.30;;;;;;;14.14;46.90;99658.44;10550200;27;20173;-59
2023/06/14 01:06:26;;;;;;;3.60;2.15;;;;;;;14.00;48.11;99663.94;10552999;28;20507;-58
2023/06/14 01:11:40;;;;;;;4.38;2.42;;;;;;;13.72;48.24;99670.47;10550130;28;20156;-59
2023/06/14 01:16:45;;;;;;;4.28;2.35;;;;;;;13.97;47.68;99671.19;10552386;28;20048;-58
2023/06/14 01:21:50;;;;;;;5.03;2.17;;;;;;;14.01;47.68;99664.75;10552259;28;20056;-58
2023/06/14 01:26:58;;;;;;;3.70;2.15;;;;;;;13.77;48.72;99672.75;10549584;28;20146;-59
2023/06/14 01:32:03;;;;;;;4.03;2.43;;;;;;;13.94;48.11;99674.09;10552740;27;20032;-58
2023/06/14 01:37:06;;;;;;;3.78;2.17;;;;;;;13.98;48.38;99670.25;10549597;28;20199;-58
2023/06/14 01:42:08;;;;;;;4.25;2.33;;;;;;;13.63;48.71;99670.34;10533637;28;20112;-58
2023/06/14 01:47:11;;;;;;;5.55;2.47;;;;;;;13.36;49.18;99670.59;10550627;28;20617;-58
2023/06/14 01:52:13;;;;;;;3.53;2.22;;;;;;;13.63;49.09;99683.47;10550519;28;20073;-59
2023/06/14 01:57:17;;;;;;;5.03;2.42;;;;;;;13.32;49.22;99681.44;10526938;28;20044;-58
2023/06/14 02:02:19;;;;;;;4.72;2.50;;;;;;;13.04;49.96;99681.84;10517675;28;20043;-58
2023/06/14 02:07:21;;;;;;;3.92;2.42;;;;;;;13.05;50.03;99679.09;10537906;28;20085;-58
2023/06/14 02:12:23;;;;;;;4.20;2.35;;;;;;;12.98;50.21;99680.50;10527768;28;20083;-58
2023/06/14 02:17:25;;;;;;;3.47;2.13;;;;;;;13.02;50.28;99683.72;10556675;28;20138;-58
2023/06/14 02:22:29;;;;;;;4.22;2.25;;;;;;;12.71;50.58;99682.50;10528666;28;20105;-58
2023/06/14 02:27:31;;;;;;;4.35;2.35;;;;;;;12.64;51.00;99678.66;10544492;28;20465;-58
2023/06/14 02:32:35;;;;;;;4.32;2.25;;;;;;;12.76;51.18;99680.41;10532139;27;20071;-58
2023/06/14 02:37:37;;;;;;;3.53;2.30;;;;;;;13.00;50.85;99686.47;10544804;28;20487;-59
2023/06/14 02:42:39;;;;;;;3.20;2.05;;;;;;;12.88;50.90;99680.31;10563841;27;20051;-59
2023/06/14 02:47:41;;;;;;;4.88;2.42;;;;;;;12.76;51.23;99686.47;10548400;28;20046;-59
2023/06/14 02:52:44;;;;;;;3.65;2.40;;;;;;;12.78;51.13;99684.56;10544778;28;20092;-59
2023/06/14 02:57:48;;;;;;;4.07;2.47;;;;;;;12.73;51.21;99691.09;10536909;28;20052;-59
2023/06/14 03:02:51;;;;;;;4.25;2.25;;;;;;;12.86;51.17;99694.53;10577825;27;20048;-59
2023/06/14 03:07:53;;;;;;;5.43;2.50;;;;;;;12.90;51.38;99695.97;10525175;27;20212;-59
2023/06/14 03:12:55;;;;;;;4.72;2.25;;;;;;;12.78;51.42;99705.56;10538207;28;20048;-58
2023/06/14 03:17:59;;;;;;;4.45;2.33;;;;;;;12.55;51.97;99716.03;10519630;28;20227;-58
2023/06/14 03:23:02;;;;;;;4.90;2.22;;;;;;;12.63;52.08;99717.19;10526258;28;20059;-58
2023/06/14 03:28:05;;;;;;;7.68;2.45;;;;;;;12.53;52.34;99723.19;10535129;27;20502;-58
2023/06/14 03:33:08;;;;;;;5.50;2.35;;;;;;;12.71;52.11;99738.44;10512350;28;20087;-58
2023/06/14 03:38:13;;;;;;;4.05;2.40;;;;;;;12.84;52.00;99733.97;10521143;28;20044;-57
2023/06/14 03:43:15;;;;;;;4.13;2.25;;;;;;;12.62;52.14;99744.34;10537484;27;20692;-58
2023/06/14 03:48:17;;;;;;;3.85;2.30;;;;;;;12.62;52.11;99752.22;10536600;28;20403;-58
2023/06/14 03:53:23;;;;;;;4.13;2.50;;;;;;;12.62;52.23;99749.59;10536874;28;20079;-58
2023/06/14 03:58:27;;;;;;;4.03;2.40;;;;;;;12.42;52.62;99752.78;10553462;27;20070;-59
2023/06/14 04:03:30;;;;;;;9.00;2.80;;;;;;;12.51;52.50;99767.88;10529118;28;20052;-59
2023/06/14 04:08:34;;;;;;;4.20;2.55;;;;;;;13.34;52.32;99766.22;10534916;28;20043;-58
2023/06/14 04:13:37;;;;;;;4.40;2.53;;;;;;;15.53;48.77;99755.03;10535904;28;20058;-58
2023/06/14 04:18:39;;;;;;;4.15;2.08;;;;;;;17.27;45.50;99758.31;10534027;27;20078;-58
2023/06/14 04:23:43;;;;;;;5.43;2.58;;;;;;;18.86;43.10;99760.91;10523205;28;20227;-58
2023/06/14 04:28:49;;;;;;;3.95;2.20;;;;;;;20.72;40.29;99750.81;10533408;28;20143;-59
2023/06/14 04:33:53;;;;;;;3.92;2.22;;;;;;;22.40;38.19;99749.28;10527719;27;20051;-58
2023/06/14 04:38:58;;;;;;;3.40;2.08;;;;;;;23.41;36.34;99750.97;10550673;28;20518;-59
2023/06/14 04:44:03;;;;;;;3.55;2.00;;;;;;;24.46;34.62;99746.50;10528665;27;21115;-59
2023/06/14 04:49:14;;;;;;;3.90;2.13;;;;;;;24.57;34.43;99751.41;10530699;27;20035;-59
2023/06/14 05:18:10;;;;;;;2.97;2.00;;;;;;;26.91;30.53;99759.97;10537288;27;20170;-59
2023/06/14 05:23:14;;;;;;;3.55;1.90;;;;;;;28.57;29.07;99753.50;10512323;28;20184;-59
2023/06/14 05:28:17;;;;;;;3.88;2.10;;;;;;;29.27;27.34;99751.75;10553170;28;20461;-59
2023/06/14 05:33:19;;;;;;;4.43;1.90;;;;;;;27.31;27.98;99761.75;10534053;28;20376;-59
2023/06/14 05:38:21;;;;;;;3.25;2.00;;;;;;;24.97;30.01;99778.50;10536517;28;20410;-59
2023/06/14 05:43:23;;;;;;;3.03;2.13;;;;;;;22.99;32.02;99781.72;10535504;28;20047;-59
2023/06/14 05:48:25;;;;;;;3.38;2.00;;;;;;;22.19;32.88;99788.94;10518593;28;20126;-58
2023/06/14 05:53:26;;;;;;;6.40;2.08;;;;;;;22.03;33.15;99802.28;10519366;28;20143;-59
2023/06/14 05:58:28;;;;;;;3.63;2.10;;;;;;;21.74;33.15;99793.97;10540573;28;20079;-59
2023/06/14 06:03:30;;;;;;;3.45;1.80;;;;;;;21.22;33.87;99803.16;10535409;28;20102;-60
2023/06/14 06:08:33;;;;;;;7.80;2.13;;;;;;;21.04;33.97;99804.13;10538971;28;20074;-60
2023/06/14 06:13:35;;;;;;;5.45;1.90;;;;;;;20.96;33.90;99808.56;10533246;28;20086;-60
2023/06/14 06:18:37;;;;;;;3.40;2.10;;;;;;;21.12;33.99;99813.09;10536177;28;20144;-60
2023/06/14 06:23:39;;;;;;;2.58;1.58;;;;;;;20.78;34.46;99806.00;10535811;28;20312;-60
2023/06/14 06:28:41;;;;;;;2.65;1.58;;;;;;;20.60;34.22;99815.06;10513906;28;20040;-60
2023/06/14 06:33:42;;;;;;;2.45;1.55;;;;;;;21.02;34.38;99803.44;10506241;28;20055;-60
2023/06/14 06:38:45;;;;;;;3.10;1.73;;;;;;;21.17;32.52;99810.81;10488787;28;20117;-60
2023/06/14 06:43:47;;;;;;;2.55;1.50;;;;;;;21.26;33.66;99820.44;10490014;28;20411;-60
2023/06/14 06:48:51;;;;;;;3.38;1.70;;;;;;;22.52;32.50;99816.38;10477765;28;20147;-60
2023/06/14 06:53:56;;;;;;;4.63;1.63;;;;;;;22.91;31.20;99811.94;10504112;28;20137;-60
2023/06/14 06:58:58;;;;;;;2.90;1.60;;;;;;;23.98;31.64;99815.44;10507293;28;20046;-60
2023/06/14 07:04:00;;;;;;;2.67;1.60;;;;;;;24.74;30.68;99814.41;10489443;28;20082;-60
2023/06/14 07:09:02;;;;;;;3.10;1.77;;;;;;;25.28;29.42;99806.84;10510468;28;20178;-60
2023/06/14 07:14:06;;;;;;;2.33;1.50;;;;;;;26.63;27.94;99810.16;10501854;28;20552;-61
2023/06/14 07:19:10;;;;;;;3.25;1.38;;;;;;;26.29;26.08;99818.16;10491380;28;20048;-60
2023/06/14 07:24:11;;;;;;;2.33;1.30;;;;;;;25.84;27.55;99809.53;10502530;28;20046;-60
2023/06/14 07:29:14;;;;;;;2.50;1.20;;;;;;;25.75;27.08;99820.56;10503290;28;20398;-60
2023/06/14 07:34:17;;;;;;;1.90;1.30;;;;;;;25.77;26.41;99815.84;10498975;28;20083;-60
2023/06/14 07:39:19;;;;;;;1.65;1.23;;;;;;;26.23;26.82;99808.22;10507731;28;20036;-60
2023/06/14 07:44:21;;;;;;;3.05;1.50;;;;;;;26.67;26.46;99811.41;10501187;28;20097;-60
2023/06/14 07:49:23;;;;;;;1.45;1.15;;;;;;;27.07;26.00;99813.28;10516587;28;20039;-60
2023/06/14 07:54:26;;;;;;;1.90;1.10;;;;;;;27.41;25.70;99804.34;10497838;28;20408;-60
2023/06/14 07:59:28;;;;;;;1.55;1.20;;;;;;;27.58;25.46;99805.63;10502543;28;20698;-60
2023/06/14 08:04:31;;;;;;;1.67;1.20;;;;;;;26.90;25.45;99817.34;10472456;28;20542;-60
2023/06/14 08:09:32;;;;;;;2.53;1.42;;;;;;;26.69;25.79;99809.38;10502702;28;20056;-60
2023/06/14 08:14:34;;;;;;;1.42;1.10;;;;;;;26.87;25.10;99807.00;10519190;28;20147;-60
2023/06/14 08:19:36;;;;;;;2.67;1.23;;;;;;;27.04;25.60;99811.00;10506539;28;20052;-61
2023/06/14 08:24:39;;;;;;;1.77;1.20;;;;;;;26.62;25.35;99804.00;10502337;28;20395;-61
2023/06/14 08:29:41;;;;;;;1.33;1.05;;;;;;;26.54;25.39;99814.84;10501136;28;20143;-61
2023/06/14 08:34:43;;;;;;;2.97;1.42;;;;;;;26.04;25.75;99809.72;10499419;28;20127;-61
2023/06/14 08:40:04;;;;;;;2.88;1.38;;;;;;;26.12;25.33;99824.84;10505895;28;20395;-60
2023/06/14 08:45:08;;;;;;;1.83;1.17;;;;;;;26.47;25.52;99813.13;10504128;28;20047;-60
2023/06/14 08:50:10;;;;;;;1.63;1.20;;;;;;;25.80;25.82;99818.13;10505593;28;20070;-60
2023/06/14 08:55:30;;;;;;;;;;;;;;;25.70;25.73;99806.91;10501556;28;20048;-60
2023/06/14 09:00:38;;;;;;;2.35;1.40;;;;;;;26.36;25.62;99808.31;10503333;28;20348;-60
2023/06/14 09:05:40;;;;;;;1.60;1.15;;;;;;;25.68;25.94;99817.81;10503129;28;20054;-60
2023/06/14 09:10:42;;;;;;;1.73;1.20;;;;;;;26.14;26.04;99823.59;10494167;28;20047;-60
2023/06/14 09:15:44;;;;;;;1.40;1.10;;;;;;;25.67;24.36;99824.19;10494020;28;20048;-60
2023/06/14 09:20:47;;;;;;;1.58;1.10;;;;;;;25.32;25.17;99834.91;10498204;28;20595;-60
2023/06/14 09:25:50;;;;;;;1.17;1.00;;;;;;;25.74;25.15;99833.13;10499933;28;20105;-60
2023/06/14 09:30:52;;;;;;;1.33;1.10;;;;;;;25.29;25.57;99840.63;10488641;28;20176;-60
2023/06/14 09:35:54;;;;;;;1.77;1.20;;;;;;;25.15;25.51;99860.22;10493621;28;20052;-60
2023/06/14 09:40:58;;;;;;;2.03;1.10;;;;;;;25.00;26.19;99852.19;10491718;28;20511;-60
2023/06/14 09:46:04;;;;;;;1.45;1.00;;;;;;;25.14;25.33;99848.69;10498593;28;20459;-60
2023/06/14 09:51:07;;;;;;;1.30;1.08;;;;;;;24.72;25.95;99851.19;10492860;28;20222;-60
2023/06/14 09:56:11;;;;;;;1.73;1.10;;;;;;;25.63;25.11;99851.56;10477664;28;20136;-60
2023/06/14 10:01:13;;;;;;;1.40;1.10;;;;;;;25.06;25.69;99863.00;10497024;28;20067;-59
2023/06/14 10:06:16;;;;;;;1.48;1.10;;;;;;;25.05;24.93;99857.84;10511427;28;20044;-59
2023/06/14 10:11:18;;;;;;;4.38;1.13;;;;;;;25.62;25.56;99855.25;10512191;28;20071;-60
2023/06/14 10:16:30;;;;;;;1.77;1.25;;;;;;;25.54;25.61;99858.88;10488055;28;20110;-60
2023/06/14 10:21:46;;;;;;;1.50;1.00;;;;;;;25.65;25.68;99853.00;10506131;28;20048;-60
2023/06/14 10:26:53;;;;;;;1.90;1.17;;;;;;;25.94;24.63;99852.06;10510388;28;20071;-60
2023/06/14 10:31:58;;;;;;;1.58;1.10;;;;;;;24.78;25.74;99856.66;10479913;28;20048;-60
2023/06/14 10:37:11;;;;;;;2.13;1.38;;;;;;;24.53;25.47;99847.19;10481777;28;20040;-60
2023/06/14 10:42:14;;;;;;;1.38;1.10;;;;;;;23.41;26.96;99854.25;10504914;28;20507;-60
2023/06/14 10:47:23;;;;;;;2.17;1.27;;;;;;;22.99;27.59;99848.41;10510976;28;20084;-60
2023/06/14 10:52:29;;;;;;;1.83;1.30;;;;;;;23.60;27.30;99850.28;10504868;28;20044;-60
2023/06/14 10:57:35;;;;;;;2.40;1.55;;;;;;;23.85;26.67;99841.94;10510599;28;20062;-60
2023/06/14 11:03:16;;;;;;;6.82;1.60;;;;;;;23.38;27.35;99858.06;10504033;28;20040;-59
2023/06/14 11:08:52;;;;;;;1.52;1.30;;;;;;;23.73;27.82;99861.22;10510111;28;20125;-59
2023/06/14 11:13:53;;;;;;;2.38;1.30;;;;;;;23.64;27.45;99871.13;10502970;28;20460;-60
2023/06/14 11:18:55;;;;;;;1.65;1.20;;;;;;;23.40;27.31;99857.88;10507152;28;20126;-60
2023/06/14 11:23:57;;;;;;;2.13;1.13;;;;;;;23.72;27.74;99859.53;10500839;28;20052;-60
2023/06/14 11:29:01;;;;;;;2.40;1.48;;;;;;;23.13;28.04;99855.69;10506906;28;20384;-60
2023/06/14 11:34:04;;;;;;;1.88;1.40;;;;;;;22.64;28.54;99863.81;10499405;28;20044;-59
2023/06/14 11:39:07;;;;;;;2.40;1.40;;;;;;;23.28;28.16;99860.13;10490712;28;20076;-59
2023/06/14 11:44:11;;;;;;;2.38;1.30;;;;;;;22.56;28.70;99861.16;10496818;28;20044;-59
2023/06/14 11:49:13;;;;;;;2.10;1.30;;;;;;;23.43;28.14;99863.72;10499378;28;20040;-59
2023/06/14 11:54:15;;;;;;;1.70;1.30;;;;;;;24.28;26.93;99857.31;10499939;28;20157;-59
2023/06/14 11:59:17;;;;;;;2.20;1.45;;;;;;;24.03;27.58;99839.78;10500099;28;20047;-59
2023/06/14 12:04:29;;;;;;;2.40;1.20;;;;;;;23.32;28.02;99841.91;10496584;28;20028;-59
2023/06/14 12:09:32;;;;;;;1.98;1.20;;;;;;;23.82;27.73;99847.63;10501763;28;20052;-59
2023/06/14 12:14:35;;;;;;;1.88;1.13;;;;;;;23.36;27.71;99852.06;10476720;28;20044;-59
2023/06/14 12:19:44;;;;;;;2.08;1.40;;;;;;;23.86;27.24;99835.56;10473996;28;20044;-59
2023/06/14 12:24:46;;;;;;;1.60;1.13;;;;;;;23.73;27.33;99840.69;10485323;28;20047;-59
2023/06/14 12:29:58;;;;;;;1.52;1.15;;;;;;;24.27;26.36;99838.75;10471763;28;20563;-59
2023/06/14 12:35:00;;;;;;;5.53;1.42;;;;;;;24.60;25.80;99836.59;10497406;28;20101;-59
2023/06/14 12:40:06;;;;;;;2.15;1.25;;;;;;;24.59;26.12;99830.41;10504162;28;20036;-60
2023/06/14 12:45:09;;;;;;;1.65;1.23;;;;;;;24.80;25.99;99819.00;10477518;28;20048;-59
2023/06/14 12:50:11;;;;;;;1.33;1.10;;;;;;;24.10;25.84;99859.44;10505432;28;20067;-59
2023/06/14 12:55:14;;;;;;;1.70;1.10;;;;;;;23.47;27.21;99824.19;10496543;28;20071;-59
2023/06/14 13:00:17;;;;;;;2.72;1.27;;;;;;;24.31;26.75;99833.91;10504157;28;20054;-59
2023/06/14 13:05:19;;;;;;;2.38;1.20;;;;;;;24.40;26.49;99833.63;10480511;28;20048;-60
2023/06/14 13:10:21;;;;;;;2.25;1.33;;;;;;;25.26;25.77;99835.66;10481710;28;20470;-59
2023/06/14 13:15:23;;;;;;;1.77;1.30;;;;;;;24.51;26.03;99835.03;10500542;28;20606;-59
2023/06/14 13:20:25;;;;;;;1.88;1.30;;;;;;;24.83;26.26;99840.88;10501439;28;20058;-60
2023/06/14 13:25:27;;;;;;;2.75;1.30;;;;;;;24.11;27.01;99845.09;10499690;28;20058;-59
2023/06/14 13:30:29;;;;;;;2.33;1.33;;;;;;;24.59;26.83;99832.28;10475105;28;20056;-60
2023/06/14 13:35:31;;;;;;;1.92;1.30;;;;;;;24.49;26.93;99834.38;10500678;28;20122;-59
2023/06/14 13:40:32;;;;;;;1.65;1.13;;;;;;;24.80;26.99;99835.06;10507445;28;20051;-59
2023/06/14 13:45:35;;;;;;;2.05;1.42;;;;;;;24.67;26.99;99851.75;10505144;28;20120;-59
2023/06/14 13:50:36;;;;;;;2.55;1.42;;;;;;;23.70;27.37;99835.69;10508750;28;20539;-60
2023/06/14 13:55:38;;;;;;;3.22;1.55;;;;;;;24.32;26.88;99827.53;10507688;28;20492;-60
2023/06/14 14:00:40;;;;;;;1.50;1.20;;;;;;;24.65;26.81;99836.88;10503377;28;20442;-59
2023/06/14 14:05:42;;;;;;;1.95;1.17;;;;;;;24.79;26.69;99830.72;10489779;28;20040;-60
2023/06/14 14:10:45;;;;;;;2.28;1.40;;;;;;;25.00;26.68;99823.59;10507008;28;20079;-59
2023/06/14 14:15:47;;;;;;;1.90;1.30;;;;;;;24.66;26.96;99827.81;10473330;28;21314;-60
2023/06/14 14:20:49;;;;;;;1.60;1.15;;;;;;;24.85;26.85;99811.25;10472246;28;20055;-59
2023/06/14 14:25:51;;;;;;;1.88;1.33;;;;;;;24.74;26.75;99819.75;10509978;28;20163;-59
2023/06/14 14:30:53;;;;;;;2.00;1.38;;;;;;;24.36;27.04;99828.81;10503216;28;20519;-59
2023/06/14 14:35:55;;;;;;;1.77;1.10;;;;;;;24.07;26.30;99827.75;10509074;28;20398;-59
2023/06/14 14:40:57;;;;;;;1.55;1.20;;;;;;;24.49;26.44;99821.00;10503577;28;20055;-59
2023/06/14 14:45:59;;;;;;;2.28;1.20;;;;;;;25.09;26.35;99818.97;10507333;28;20508;-59
2023/06/14 14:51:02;;;;;;;1.83;1.23;;;;;;;24.78;26.67;99831.72;10503136;28;20047;-59
2023/06/14 14:56:04;;;;;;;1.85;1.27;;;;;;;24.16;27.31;99826.66;10510354;28;20848;-59
2023/06/14 15:01:07;;;;;;;2.13;1.40;;;;;;;23.69;27.49;99827.88;10500316;28;20159;-60
2023/06/14 15:06:09;;;;;;;1.63;1.20;;;;;;;23.66;27.56;99829.06;10509227;28;20045;-59
2023/06/14 15:11:11;;;;;;;1.70;1.17;;;;;;;23.90;27.62;99825.38;10482475;28;20139;-60
2023/06/14 15:16:13;;;;;;;1.85;1.20;;;;;;;24.11;27.27;99820.19;10508875;28;20655;-59
2023/06/14 15:21:15;;;;;;;1.95;1.30;;;;;;;24.06;27.38;99815.38;10500825;28;20079;-60
2023/06/14 15:26:16;;;;;;;2.22;1.30;;;;;;;24.21;27.09;99816.28;10506566;28;20178;-60
2023/06/14 15:31:18;;;;;;;1.58;1.23;;;;;;;24.15;27.62;99816.16;10498619;28;20124;-59
2023/06/14 15:36:20;;;;;;;2.55;1.40;;;;;;;24.03;27.27;99812.22;10474839;28;20058;-60
2023/06/14 15:41:22;;;;;;;1.80;1.20;;;;;;;24.15;26.98;99818.81;10498614;28;20075;-60
2023/06/14 15:46:23;;;;;;;1.92;1.30;;;;;;;24.31;26.95;99812.53;10505507;28;20123;-59
2023/06/14 15:51:25;;;;;;;1.67;1.20;;;;;;;24.71;26.35;99809.41;10499617;28;20333;-59
2023/06/14 15:56:27;;;;;;;1.70;1.27;;;;;;;25.45;25.91;99801.09;10489830;28;20060;-60
2023/06/14 16:01:29;;;;;;;1.80;1.40;;;;;;;25.86;25.93;99802.13;10495875;28;20056;-60
2023/06/14 16:06:31;;;;;;;1.58;1.25;;;;;;;25.14;26.17;99805.03;10505382;28;20139;-60
2023/06/14 16:11:33;;;;;;;2.75;1.30;;;;;;;24.46;26.53;99803.50;10497508;28;20047;-60
2023/06/14 16:16:35;;;;;;;1.73;1.30;;;;;;;23.96;26.94;99808.63;10505133;28;20117;-60
2023/06/14 16:21:37;;;;;;;2.22;1.40;;;;;;;23.86;27.28;99810.72;10496689;28;20123;-60
2023/06/14 16:26:39;;;;;;;2.17;1.40;;;;;;;23.65;27.46;99806.03;10514280;28;20064;-60
2023/06/14 16:31:40;;;;;;;2.75;1.48;;;;;;;23.78;27.35;99811.59;10497171;28;20055;-60
2023/06/14 16:36:45;;;;;;;1.92;1.30;;;;;;;23.81;27.49;99808.59;10503914;28;20044;-59
2023/06/14 16:41:46;;;;;;;2.35;1.40;;;;;;;23.88;27.34;99798.81;10496479;28;20052;-60
2023/06/14 16:46:48;;;;;;;2.45;1.30;;;;;;;24.23;27.44;99800.03;10503796;28;20549;-60
2023/06/14 16:51:50;;;;;;;1.67;1.30;;;;;;;24.18;27.40;99807.78;10496203;28;20040;-60
2023/06/14 16:56:52;;;;;;;1.83;1.27;;;;;;;24.21;27.21;99802.06;10499989;28;20094;-60
2023/06/14 17:02:01;;;;;;;1.40;1.15;;;;;;;24.13;26.65;99805.66;10496828;28;20134;-60
2023/06/14 17:07:06;;;;;;;3.22;1.40;;;;;;;24.04;26.72;99801.34;10507038;28;20062;-60
2023/06/14 17:12:11;;;;;;;1.67;1.20;;;;;;;23.94;26.97;99806.13;10498197;28;20056;-60
2023/06/14 17:17:13;;;;;;;1.98;1.27;;;;;;;24.00;27.17;99805.41;10505254;28;20125;-60
2023/06/14 17:22:15;;;;;;;2.30;1.30;;;;;;;23.59;27.58;99822.78;10496431;28;20209;-59
2023/06/14 17:27:17;;;;;;;3.40;1.33;;;;;;;23.64;27.74;99833.75;10505101;28;20138;-60
2023/06/14 17:32:18;;;;;;;3.83;1.38;;;;;;;23.54;27.54;99826.97;10495808;28;20308;-60
2023/06/14 17:37:20;;;;;;;3.22;1.50;;;;;;;23.51;27.30;99838.00;10501115;28;20514;-59
2023/06/14 17:42:22;;;;;;;2.22;1.30;;;;;;;23.32;27.43;99839.25;10490506;28;20618;-59
2023/06/14 17:47:25;;;;;;;1.88;1.40;;;;;;;23.30;27.65;99827.91;10498870;28;20043;-59
2023/06/14 17:52:30;;;;;;;2.13;1.30;;;;;;;23.41;27.43;99838.25;10496926;28;20047;-59
2023/06/14 17:57:32;;;;;;;1.90;1.30;;;;;;;23.40;27.75;99839.19;10505081;28;20416;-59
2023/06/14 18:02:34;;;;;;;3.03;1.50;;;;;;;23.16;27.87;99837.50;10495089;28;20464;-59
2023/06/14 18:07:38;;;;;;;2.15;1.38;;;;;;;23.24;27.94;99844.63;10486133;28;20048;-59
2023/06/14 18:12:40;;;;;;;2.38;1.48;;;;;;;23.20;27.40;99845.97;10479788;28;20132;-59
2023/06/14 18:17:42;;;;;;;4.13;1.33;;;;;;;22.98;27.61;99855.59;10499816;28;20507;-59
2023/06/14 18:22:44;;;;;;;1.73;1.40;;;;;;;22.79;27.96;99853.31;10498704;28;20048;-61
2023/06/14 18:27:46;;;;;;;2.03;1.30;;;;;;;22.73;27.91;99866.47;10512637;28;20155;-61
2023/06/14 18:32:48;;;;;;;1.65;1.30;;;;;;;22.68;27.95;99870.47;10497256;28;20078;-61
2023/06/14 18:37:50;;;;;;;3.08;1.50;;;;;;;22.45;27.98;99880.16;10509543;28;20054;-61
2023/06/14 18:42:52;;;;;;;2.58;1.50;;;;;;;22.37;28.10;99884.69;10499497;28;20078;-60
2023/06/14 18:47:55;;;;;;;2.55;1.48;;;;;;;22.16;28.63;99887.88;10486602;28;20048;-60
2023/06/14 18:52:59;;;;;;;2.72;1.50;;;;;;;22.08;28.47;99884.38;10508030;28;20134;-60
2023/06/14 18:58:01;;;;;;;2.25;1.23;;;;;;;21.95;28.62;99889.31;10507616;28;20059;-61
2023/06/14 19:03:03;;;;;;;2.60;1.45;;;;;;;21.78;28.65;99891.94;10507543;28;20518;-60
2023/06/14 19:08:05;;;;;;;2.80;1.38;;;;;;;21.73;28.95;99893.44;10488228;28;20036;-60
2023/06/14 19:13:10;;;;;;;2.20;1.35;;;;;;;21.50;29.09;99892.38;10508585;28;20450;-61
2023/06/14 19:18:12;;;;;;;2.30;1.40;;;;;;;21.44;29.28;99901.84;10508882;28;20132;-61
2023/06/14 19:23:14;;;;;;;2.72;1.55;;;;;;;21.30;29.99;99910.41;10508668;28;20035;-62
2023/06/14 19:28:16;;;;;;;2.70;1.52;;;;;;;21.01;30.13;99916.09;10511109;28;20135;-62
2023/06/14 19:33:18;;;;;;;2.40;1.60;;;;;;;20.90;30.38;99921.72;10510446;28;20477;-62
2023/06/14 19:38:19;;;;;;;2.35;1.40;;;;;;;20.68;30.96;99922.22;10507855;28;20106;-62
2023/06/14 19:43:21;;;;;;;1.98;1.45;;;;;;;20.58;30.83;99926.78;10493268;28;20567;-62
2023/06/14 19:48:23;;;;;;;2.45;1.45;;;;;;;20.42;31.10;99939.13;10508815;28;20059;-62
2023/06/14 19:53:25;;;;;;;2.72;1.50;;;;;;;20.39;31.34;99953.53;10505873;28;20230;-61
2023/06/14 19:58:26;;;;;;;1.90;1.30;;;;;;;20.27;32.04;99955.56;10502638;28;20055;-61
2023/06/14 20:03:28;;;;;;;2.05;1.40;;;;;;;20.19;31.78;99960.00;10504843;28;20105;-61
2023/06/14 20:08:30;;;;;;;2.00;1.40;;;;;;;19.95;32.40;99971.19;10509265;28;20047;-61
2023/06/14 20:13:32;;;;;;;2.60;1.50;;;;;;;19.82;32.72;99978.69;10506398;28;20040;-61
2023/06/14 20:18:34;;;;;;;2.35;1.38;;;;;;;19.73;33.08;99986.66;10475097;28;20084;-61
2023/06/14 20:23:37;;;;;;;2.00;1.30;;;;;;;19.56;33.58;99988.31;10507603;28;20040;-61
2023/06/14 20:28:39;;;;;;;2.08;1.20;;;;;;;19.41;33.91;99995.09;10509621;28;20078;-61
2023/06/14 20:33:41;;;;;;;2.33;1.40;;;;;;;19.34;33.76;99996.63;10509625;28;20134;-61
2023/06/14 20:38:43;;;;;;;2.00;1.30;;;;;;;19.26;33.74;99997.38;10508334;28;20152;-61
2023/06/14 20:43:45;;;;;;;2.40;1.50;;;;;;;19.12;34.04;100003.13;10508927;28;20109;-61
2023/06/14 20:48:46;;;;;;;1.95;1.30;;;;;;;18.91;34.40;99996.34;10489094;28;20055;-61
2023/06/14 20:53:49;;;;;;;3.05;1.50;;;;;;;18.62;34.82;99999.03;10520260;28;20043;-61
2023/06/14 20:58:51;;;;;;;2.45;1.38;;;;;;;18.30;35.45;100009.06;10487655;28;20142;-61
2023/06/14 21:03:53;;;;;;;2.60;1.60;;;;;;;18.25;35.83;100016.59;10500595;28;20038;-61
2023/06/14 21:08:54;;;;;;;2.08;1.48;;;;;;;18.09;36.21;100010.97;10499902;28;20036;-61
2023/06/14 21:13:57;;;;;;;2.85;1.55;;;;;;;17.93;36.38;100015.94;10501267;28;20051;-61
2023/06/14 21:18:58;;;;;;;2.55;1.48;;;;;;;17.61;36.97;100016.97;10501729;28;20051;-61
2023/06/14 21:24:00;;;;;;;2.30;1.48;;;;;;;17.60;37.24;100011.81;10505474;28;21285;-61
2023/06/14 21:29:02;;;;;;;3.58;1.50;;;;;;;17.66;37.29;100013.94;10503674;28;20089;-61
2023/06/14 21:34:04;;;;;;;2.30;1.48;;;;;;;17.64;37.51;100021.16;10506447;28;20488;-61
2023/06/14 21:39:06;;;;;;;3.17;1.60;;;;;;;17.67;37.48;100021.72;10487460;28;20142;-61
2023/06/14 21:44:08;;;;;;;1.92;1.42;;;;;;;17.70;37.42;100032.06;10504858;28;20102;-61
2023/06/14 21:49:09;;;;;;;2.10;1.50;;;;;;;17.69;38.19;100030.34;10505054;28;20115;-61
2023/06/14 21:54:11;;;;;;;2.28;1.50;;;;;;;17.60;38.20;100035.63;10506183;28;20076;-61
2023/06/14 21:59:13;;;;;;;2.40;1.52;;;;;;;17.55;38.56;100032.53;10478504;28;20136;-61
2023/06/14 22:04:15;;;;;;;2.45;1.63;;;;;;;17.40;39.17;100040.00;10515692;28;20040;-61
2023/06/14 22:09:17;;;;;;;2.03;1.40;;;;;;;17.31;39.67;100030.19;10515249;28;20105;-61
2023/06/14 22:14:21;;;;;;;2.65;1.73;;;;;;;17.10;39.99;100033.81;10516697;28;20757;-61
2023/06/14 22:19:23;;;;;;;2.50;1.45;;;;;;;16.98;39.99;100038.31;10515585;28;20514;-61
2023/06/14 22:24:25;;;;;;;2.17;1.42;;;;;;;16.99;39.87;100046.16;10513811;28;20151;-61
2023/06/14 22:29:28;;;;;;;1.88;1.38;;;;;;;16.87;40.31;100039.22;10513490;28;20055;-61
2023/06/14 22:34:32;;;;;;;2.88;1.55;;;;;;;16.77;40.65;100045.44;10513042;28;20105;-61
2023/06/14 22:39:34;;;;;;;3.03;1.70;;;;;;;16.62;40.97;100042.25;10511863;28;20051;-61
2023/06/14 22:44:36;;;;;;;2.55;1.50;;;;;;;16.40;41.32;100042.31;10513209;28;20044;-61
2023/06/14 22:49:39;;;;;;;4.03;1.52;;;;;;;16.28;41.64;100043.31;10491108;28;20408;-61
2023/06/14 22:54:44;;;;;;;2.95;1.70;;;;;;;16.16;42.10;100039.03;10512859;28;20071;-61
2023/06/14 22:59:46;;;;;;;1.95;1.40;;;;;;;15.98;42.81;100046.63;10512266;28;20118;-61
2023/06/14 23:04:48;;;;;;;2.53;1.50;;;;;;;15.90;42.93;100048.19;10512660;28;20135;-61
2023/06/14 23:09:50;;;;;;;2.75;1.77;;;;;;;15.23;43.91;100048.19;10511226;28;20287;-61
2023/06/14 23:14:51;;;;;;;2.85;1.65;;;;;;;14.93;44.55;100045.25;10511644;28;20151;-61
2023/06/14 23:19:53;;;;;;;2.97;1.80;;;;;;;15.03;44.69;100048.03;10511114;28;20113;-61
2023/06/14 23:24:58;;;;;;;1.90;1.50;;;;;;;14.95;44.90;100045.13;10511057;28;20449;-61
2023/06/14 23:30:02;;;;;;;3.10;1.77;;;;;;;14.76;45.18;100040.41;10476931;28;20315;-60
2023/06/14 23:35:07;;;;;;;2.72;1.70;;;;;;;15.02;45.26;100043.72;10511039;28;20407;-61
2023/06/14 23:40:12;;;;;;;2.72;1.73;;;;;;;15.15;45.11;100044.44;10509406;28;20056;-61
2023/06/14 23:45:14;;;;;;;2.80;1.60;;;;;;;15.05;45.59;100044.31;10511253;28;20068;-61
2023/06/14 23:50:16;;;;;;;2.00;1.40;;;;;;;14.96;46.00;100045.00;10508977;28;21289;-61